createdAt,value
2023-05-03T00:00:22.705Z,4.20
2023-05-03T00:02:53.988Z,4.10
2023-05-03T00:05:22.062Z,3.90
2023-05-03T00:07:50.273Z,4.10
2023-05-03T00:10:18.214Z,3.80
2023-05-03T00:12:46.193Z,4.00
2023-05-03T00:15:14.103Z,3.70
2023-05-03T00:17:42.001Z,3.80
2023-05-03T00:20:12.689Z,3.70
2023-05-03T00:22:40.635Z,3.60
2023-05-03T00:25:09.872Z,3.80
2023-05-03T00:27:38.287Z,3.70
2023-05-03T00:30:07.241Z,3.60
2023-05-03T00:32:35.156Z,3.70
2023-05-03T00:35:03.419Z,3.70
2023-05-03T00:37:32.705Z,3.70
2023-05-03T00:40:00.901Z,3.50
2023-05-03T00:42:28.916Z,3.50
2023-05-03T00:44:56.781Z,3.60
2023-05-03T00:47:24.828Z,3.50
2023-05-03T00:49:52.874Z,3.50
2023-05-03T00:52:20.896Z,3.30
2023-05-03T00:54:50.326Z,3.30
2023-05-03T00:57:18.288Z,3.20
2023-05-03T00:59:46.356Z,3.50
2023-05-03T01:02:14.256Z,3.20
2023-05-03T01:04:43.344Z,3.30
2023-05-03T01:07:21.775Z,3.30
2023-05-03T01:10:01.001Z,3.30
2023-05-03T01:12:39.699Z,3.40
2023-05-03T01:15:13.372Z,3.30
2023-05-03T01:17:51.033Z,3.20
2023-05-03T01:20:24.791Z,3.10
2023-05-03T01:23:02.812Z,3.20
2023-05-03T01:25:32.619Z,3.20
2023-05-03T01:28:01.419Z,3.00
2023-05-03T01:30:31.816Z,3.00
2023-05-03T01:33:05.852Z,2.90
2023-05-03T01:35:41.602Z,3.10
2023-05-03T01:38:10.099Z,2.90
2023-05-03T01:40:44.190Z,3.00
2023-05-03T01:43:14.339Z,3.10
2023-05-03T01:45:43.026Z,2.90
2023-05-03T01:48:12.397Z,2.90
2023-05-03T01:50:40.357Z,3.00
2023-05-03T01:53:08.300Z,3.10
2023-05-03T01:55:36.177Z,2.90
2023-05-03T01:58:06.114Z,2.80
2023-05-03T02:00:33.990Z,2.90
2023-05-03T02:03:01.905Z,3.00
2023-05-03T02:05:29.866Z,2.90
2023-05-03T02:07:57.790Z,3.10
2023-05-03T02:10:25.639Z,2.90
2023-05-03T02:12:53.524Z,2.80
2023-05-03T02:15:22.788Z,2.80
2023-05-03T02:17:50.877Z,2.80
2023-05-03T02:20:19.231Z,2.70
2023-05-03T02:22:47.135Z,2.70
2023-05-03T02:25:15.092Z,2.70
2023-05-03T02:27:42.985Z,2.70
2023-05-03T02:30:11.513Z,2.70
2023-05-03T02:32:40.830Z,2.70
2023-05-03T02:35:09.681Z,2.70
2023-05-03T02:37:37.672Z,2.70
2023-05-03T02:40:07.121Z,2.70
2023-05-03T02:42:35.016Z,2.60
2023-05-03T02:45:03.260Z,2.70
2023-05-03T02:47:32.286Z,2.70
2023-05-03T02:50:01.886Z,2.50
2023-05-03T02:52:30.122Z,2.50
2023-05-03T02:54:58.179Z,2.60
2023-05-03T02:57:26.040Z,2.30
2023-05-03T02:59:53.956Z,2.50
2023-05-03T03:02:22.077Z,2.40
2023-05-03T03:04:50.024Z,2.30
2023-05-03T03:07:19.301Z,2.50
2023-05-03T03:09:47.256Z,2.50
2023-05-03T03:12:15.236Z,2.30
2023-05-03T03:14:45.601Z,2.30
2023-05-03T03:17:13.572Z,2.30
2023-05-03T03:19:41.523Z,2.20
2023-05-03T03:22:09.501Z,2.30
2023-05-03T03:24:39.565Z,2.30
2023-05-03T03:27:07.484Z,2.30
2023-05-03T03:29:36.271Z,2.20
2023-05-03T03:32:04.317Z,2.40
2023-05-03T03:34:32.989Z,2.20
2023-05-03T03:37:00.986Z,2.20
2023-05-03T03:39:28.886Z,2.30
2023-05-03T03:41:58.174Z,2.10
2023-05-03T03:44:26.153Z,2.10
2023-05-03T03:46:54.014Z,2.00
2023-05-03T03:49:21.908Z,2.10
2023-05-03T03:51:49.812Z,2.00
2023-05-03T03:54:17.717Z,2.00
2023-05-03T03:56:45.696Z,1.90
2023-05-03T03:59:14.934Z,1.90
2023-05-03T04:01:42.829Z,2.20
2023-05-03T04:04:10.801Z,2.10
2023-05-03T04:06:38.758Z,2.10
2023-05-03T04:09:06.779Z,2.00
2023-05-03T04:11:34.912Z,2.10
2023-05-03T04:14:04.490Z,1.90
2023-05-03T04:16:33.918Z,2.00
2023-05-03T04:19:02.475Z,1.90
2023-05-03T04:21:30.350Z,2.00
2023-05-03T04:23:58.511Z,1.80
2023-05-03T04:26:31.653Z,2.10
2023-05-03T04:29:00.411Z,2.10
2023-05-03T04:31:28.637Z,2.20
2023-05-03T04:33:58.995Z,2.20
2023-05-03T04:36:29.719Z,2.20
2023-05-03T04:38:57.651Z,2.10
2023-05-03T04:41:25.637Z,2.20
2023-05-03T04:43:54.276Z,2.40
2023-05-03T04:46:22.175Z,2.40
2023-05-03T04:48:50.108Z,2.30
2023-05-03T04:51:19.387Z,2.60
2023-05-03T04:53:47.592Z,2.60
2023-05-03T04:56:15.610Z,2.80
2023-05-03T04:58:44.446Z,2.90
2023-05-03T05:01:12.546Z,2.90
2023-05-03T05:03:40.549Z,2.90
2023-05-03T05:06:09.873Z,3.00
2023-05-03T05:08:39.294Z,3.20
2023-05-03T05:11:08.020Z,3.20
2023-05-03T05:13:36.192Z,3.40
2023-05-03T05:16:04.129Z,3.40
2023-05-03T05:18:32.422Z,3.60
2023-05-03T05:21:00.377Z,3.60
2023-05-03T05:23:29.196Z,3.70
2023-05-03T05:26:00.459Z,3.80
2023-05-03T05:28:28.830Z,3.90
2023-05-03T05:30:56.816Z,4.10
2023-05-03T05:33:25.136Z,4.10
2023-05-03T05:35:53.102Z,4.30
2023-05-03T05:38:21.126Z,4.30
2023-05-03T05:40:49.005Z,4.50
2023-05-03T05:43:18.717Z,4.60
2023-05-03T05:45:46.645Z,5.00
2023-05-03T05:48:15.492Z,5.20
2023-05-03T05:50:43.439Z,5.30
2023-05-03T05:53:11.340Z,5.50
2023-05-03T05:55:39.270Z,5.50
2023-05-03T05:58:07.183Z,5.70
2023-05-03T06:00:36.660Z,5.70
2023-05-03T06:03:04.685Z,5.70
2023-05-03T06:05:32.699Z,5.90
2023-05-03T06:08:00.734Z,6.40
2023-05-03T06:10:28.666Z,6.30
2023-05-03T06:12:56.577Z,6.40
2023-05-03T06:15:24.482Z,6.50
2023-05-03T06:17:53.926Z,6.80
2023-05-03T06:20:24.098Z,6.60
2023-05-03T06:22:52.419Z,7.10
2023-05-03T06:25:20.402Z,7.10
2023-05-03T06:27:48.286Z,7.10
2023-05-03T06:30:16.747Z,7.20
2023-05-03T06:32:44.659Z,7.40
2023-05-03T06:35:14.021Z,7.60
2023-05-03T06:37:43.531Z,7.80
2023-05-03T06:40:11.905Z,7.80
2023-05-03T06:42:39.808Z,7.80
2023-05-03T06:45:08.634Z,8.10
2023-05-03T06:47:37.155Z,8.10
2023-05-03T06:50:05.969Z,8.10
2023-05-03T06:52:35.427Z,8.20
2023-05-03T06:55:04.681Z,8.30
2023-05-03T06:57:32.617Z,8.40
2023-05-03T07:00:00.709Z,8.60
2023-05-03T07:02:28.894Z,8.60
2023-05-03T07:04:57.033Z,8.70
2023-05-03T07:07:25.019Z,8.80
2023-05-03T07:09:54.263Z,8.90
2023-05-03T07:12:27.465Z,9.00
2023-05-03T07:14:56.002Z,8.90
2023-05-03T07:17:24.724Z,9.00
2023-05-03T07:19:53.148Z,9.10
2023-05-03T07:22:24.588Z,9.00
2023-05-03T07:24:54.963Z,9.10
2023-05-03T07:27:23.012Z,9.20
2023-05-03T07:29:50.906Z,9.30
2023-05-03T07:32:18.903Z,9.50
2023-05-03T07:34:46.865Z,9.40
2023-05-03T07:37:14.875Z,9.50
2023-05-03T07:39:43.243Z,9.60
2023-05-03T07:42:12.536Z,9.60
2023-05-03T07:44:41.101Z,9.50
2023-05-03T07:47:09.000Z,9.20
2023-05-03T07:49:38.684Z,9.40
2023-05-03T07:52:06.629Z,9.50
2023-05-03T07:54:34.533Z,9.60
2023-05-03T07:57:03.714Z,9.70
2023-05-03T07:59:32.996Z,9.80
2023-05-03T08:02:01.867Z,9.60
2023-05-03T08:04:30.098Z,9.90
2023-05-03T08:07:00.940Z,9.90
2023-05-03T08:09:29.245Z,10.20
2023-05-03T08:11:57.460Z,10.10
2023-05-03T08:14:25.704Z,10.00
2023-05-03T08:16:55.056Z,10.10
2023-05-03T08:19:23.063Z,10.20
2023-05-03T08:21:52.281Z,10.20
2023-05-03T08:24:20.915Z,10.30
2023-05-03T08:26:49.299Z,10.60
2023-05-03T08:29:17.511Z,10.80
2023-05-03T08:31:45.609Z,10.90
2023-05-03T08:34:15.651Z,11.00
2023-05-03T08:36:44.664Z,11.00
2023-05-03T08:39:15.224Z,11.00
2023-05-03T08:41:43.509Z,11.00
2023-05-03T08:44:14.364Z,10.90
2023-05-03T08:46:44.832Z,10.80
2023-05-03T08:49:14.747Z,11.10
2023-05-03T08:51:44.100Z,10.90
2023-05-03T08:54:12.112Z,11.00
2023-05-03T08:56:42.159Z,11.20
2023-05-03T08:59:11.534Z,11.30
2023-05-03T09:01:40.908Z,11.40
2023-05-03T09:04:10.007Z,11.60
2023-05-03T09:06:39.651Z,11.60
2023-05-03T09:09:10.314Z,11.70
2023-05-03T09:11:39.995Z,11.80
2023-05-03T09:14:11.945Z,11.80
2023-05-03T09:16:40.988Z,11.80
2023-05-03T09:19:11.699Z,12.00
2023-05-03T09:21:43.095Z,12.00
2023-05-03T09:24:15.950Z,12.20
2023-05-03T09:26:45.502Z,12.00
2023-05-03T09:29:29.660Z,12.00
2023-05-03T09:32:02.742Z,12.00
2023-05-03T09:34:31.791Z,12.20
2023-05-03T09:37:01.400Z,11.90
2023-05-03T09:39:29.441Z,11.70
2023-05-03T09:41:57.818Z,11.70
2023-05-03T09:44:42.811Z,11.80
2023-05-03T09:47:11.541Z,12.00
2023-05-03T09:49:40.155Z,11.90
2023-05-03T09:52:10.289Z,11.60
2023-05-03T09:54:39.013Z,11.60
2023-05-03T09:57:08.530Z,11.60
2023-05-03T09:59:38.756Z,12.00
2023-05-03T10:02:09.175Z,12.30
2023-05-03T10:04:43.421Z,12.60
2023-05-03T10:07:15.800Z,12.70
2023-05-03T10:09:45.969Z,12.60
2023-05-03T10:12:17.462Z,12.60
2023-05-03T10:14:47.823Z,12.70
2023-05-03T10:17:29.259Z,12.70
2023-05-03T10:20:18.660Z,12.60
2023-05-03T10:23:10.030Z,12.50
2023-05-03T10:25:39.181Z,12.70
2023-05-03T10:28:08.217Z,13.00
2023-05-03T10:30:37.890Z,13.10
2023-05-03T10:33:31.763Z,13.10
2023-05-03T10:36:01.386Z,13.10
2023-05-03T10:38:32.583Z,13.20
2023-05-03T10:41:03.385Z,13.20
2023-05-03T10:43:44.671Z,13.40
2023-05-03T10:46:31.288Z,13.60
2023-05-03T10:49:19.256Z,13.70
2023-05-03T10:51:47.301Z,13.70
2023-05-03T10:54:17.673Z,13.80
2023-05-03T10:56:57.068Z,13.70
2023-05-03T10:59:25.861Z,13.50
2023-05-03T11:01:54.534Z,13.50
2023-05-03T11:04:36.295Z,13.50
2023-05-03T11:07:04.595Z,13.50
2023-05-03T11:09:35.211Z,13.70
2023-05-03T11:12:08.490Z,13.90
2023-05-03T11:14:36.671Z,13.80
2023-05-03T11:17:04.793Z,14.00
2023-05-03T11:19:33.610Z,13.90
2023-05-03T11:22:02.714Z,14.00
2023-05-03T11:24:31.082Z,13.80
2023-05-03T11:27:08.422Z,14.20
2023-05-03T11:29:37.879Z,14.30
2023-05-03T11:32:09.179Z,14.30
2023-05-03T11:34:37.249Z,14.50
2023-05-03T11:37:05.288Z,14.60
2023-05-03T11:39:34.173Z,14.60
2023-05-03T11:42:04.842Z,14.60
2023-05-03T11:44:33.058Z,14.70
2023-05-03T11:47:02.015Z,14.30
2023-05-03T11:49:30.393Z,14.40
2023-05-03T11:51:58.576Z,14.60
2023-05-03T11:54:27.982Z,14.50
2023-05-03T11:57:00.696Z,14.70
2023-05-03T11:59:40.821Z,14.80
2023-05-03T12:02:11.346Z,14.80
2023-05-03T12:04:43.296Z,14.90
2023-05-03T12:07:14.557Z,14.90
2023-05-03T12:09:47.915Z,15.00
2023-05-03T12:12:27.476Z,14.90
2023-05-03T12:15:03.580Z,14.90
2023-05-03T12:17:38.342Z,14.90
2023-05-03T12:22:51.670Z,14.90
2023-05-03T12:25:21.756Z,15.00
2023-05-03T12:28:12.874Z,15.20
2023-05-03T12:30:45.903Z,15.10
2023-05-03T12:33:16.063Z,15.10
2023-05-03T12:35:47.292Z,15.00
2023-05-03T12:38:17.335Z,15.00
2023-05-03T12:40:46.776Z,15.00
2023-05-03T12:43:14.813Z,15.30
2023-05-03T12:45:48.877Z,15.10
2023-05-03T12:48:20.838Z,15.30
2023-05-03T12:50:51.908Z,15.50
2023-05-03T12:53:20.217Z,15.70
2023-05-03T12:55:51.236Z,15.60
2023-05-03T13:01:36.986Z,15.40
2023-05-03T13:03:44.013Z,15.40
2023-05-03T13:06:14.848Z,15.40
2023-05-03T13:11:14.301Z,15.70
2023-05-03T13:13:42.806Z,15.80
2023-05-03T13:16:12.093Z,15.80
2023-05-03T13:18:39.977Z,15.70
2023-05-03T13:21:08.213Z,15.70
2023-05-03T13:23:36.248Z,15.90
2023-05-03T13:26:04.184Z,15.90
2023-05-03T13:28:32.070Z,15.90
2023-05-03T13:30:59.965Z,16.00
2023-05-03T13:33:29.685Z,16.20
2023-05-03T13:35:57.659Z,16.00
2023-05-03T13:38:25.545Z,15.80
2023-05-03T13:40:53.431Z,15.90
2023-05-03T13:43:21.297Z,16.00
2023-05-03T13:45:49.565Z,16.20
2023-05-03T13:48:18.449Z,16.20
2023-05-03T13:50:48.486Z,16.10
2023-05-03T13:53:16.502Z,16.10
2023-05-03T13:55:44.363Z,16.20
2023-05-03T13:58:12.184Z,16.10
2023-05-03T14:00:40.503Z,16.10
2023-05-03T14:03:08.686Z,16.00
2023-05-03T14:05:36.821Z,16.10
2023-05-03T14:08:06.484Z,16.20
2023-05-03T14:10:36.474Z,16.00
2023-05-03T14:13:04.411Z,16.00
2023-05-03T14:15:32.545Z,16.00
2023-05-03T14:18:03.124Z,16.00
2023-05-03T14:20:36.309Z,16.10
2023-05-03T14:23:06.040Z,16.10
2023-05-03T14:25:33.902Z,15.90
2023-05-03T14:28:02.075Z,15.90
2023-05-03T14:30:31.626Z,15.80
2023-05-03T14:32:59.516Z,15.90
2023-05-03T14:35:27.496Z,16.00
2023-05-03T14:37:55.455Z,16.10
2023-05-03T14:40:24.781Z,16.00
2023-05-03T14:42:52.718Z,16.00
2023-05-03T14:45:20.678Z,16.10
2023-05-03T14:47:48.566Z,16.00
2023-05-03T14:50:16.838Z,15.90
2023-05-03T14:52:44.712Z,15.90
2023-05-03T14:55:12.695Z,15.90
2023-05-03T14:57:42.044Z,16.10
2023-05-03T15:00:14.239Z,16.10
2023-05-03T15:02:42.430Z,16.10
2023-05-03T15:05:11.211Z,16.00
2023-05-03T15:07:39.104Z,16.10
2023-05-03T15:10:08.522Z,16.10
2023-05-03T15:12:36.638Z,16.10
2023-05-03T15:15:07.275Z,16.10
2023-05-03T15:17:35.119Z,16.10
2023-05-03T15:20:04.104Z,16.20
2023-05-03T15:22:32.206Z,16.10
2023-05-03T15:25:00.344Z,16.20
2023-05-03T15:27:28.240Z,16.10
2023-05-03T15:29:56.097Z,16.10
2023-05-03T15:32:25.809Z,16.10
2023-05-03T15:34:53.669Z,16.30
2023-05-03T15:37:21.574Z,16.40
2023-05-03T15:39:49.469Z,16.50
2023-05-03T15:42:17.342Z,16.80
2023-05-03T15:44:46.954Z,17.30
2023-05-03T15:47:14.823Z,17.70
2023-05-03T15:49:44.062Z,17.90
2023-05-03T15:52:12.909Z,18.10
2023-05-03T15:54:41.257Z,18.50
2023-05-03T15:57:09.133Z,18.90
2023-05-03T15:59:37.155Z,19.20
2023-05-03T16:02:05.323Z,19.60
2023-05-03T16:04:33.146Z,20.00
2023-05-03T16:07:02.245Z,20.30
2023-05-03T16:09:30.693Z,20.50
2023-05-03T16:11:59.026Z,19.90
2023-05-03T16:14:26.835Z,19.60
2023-05-03T16:16:55.025Z,20.40
2023-05-03T16:19:22.778Z,20.20
2023-05-03T16:21:50.549Z,20.30
2023-05-03T16:24:19.603Z,20.10
2023-05-03T16:26:47.267Z,20.10
2023-05-03T16:29:14.980Z,20.40
2023-05-03T16:31:43.301Z,19.90
2023-05-03T16:34:11.137Z,20.00
2023-05-03T16:36:42.630Z,19.80
2023-05-03T16:39:11.443Z,19.30
2023-05-03T16:41:41.224Z,19.20
2023-05-03T16:44:09.564Z,19.60
2023-05-03T16:46:39.114Z,19.60
2023-05-03T16:49:07.349Z,20.00
2023-05-03T16:51:35.349Z,19.70
2023-05-03T16:54:04.540Z,19.20
2023-05-03T16:56:32.679Z,18.70
2023-05-03T16:59:02.847Z,18.80
2023-05-03T17:01:30.802Z,18.70
2023-05-03T17:03:58.685Z,18.90
2023-05-03T17:06:27.276Z,18.70
2023-05-03T17:08:55.282Z,18.90
2023-05-03T17:11:23.401Z,18.50
2023-05-03T17:13:51.277Z,18.40
2023-05-03T17:16:22.732Z,18.40
2023-05-03T17:18:50.884Z,18.60
2023-05-03T17:21:19.446Z,18.80
2023-05-03T17:23:47.552Z,18.80
2023-05-03T17:26:15.418Z,18.50
2023-05-03T17:28:44.960Z,18.40
2023-05-03T17:31:13.120Z,18.60
2023-05-03T17:33:42.413Z,18.40
2023-05-03T17:36:10.348Z,18.10
2023-05-03T17:38:38.464Z,18.00
2023-05-03T17:41:07.775Z,18.00
2023-05-03T17:43:36.225Z,18.10
2023-05-03T17:46:10.606Z,17.80
2023-05-03T17:48:40.274Z,17.90
2023-05-03T17:51:11.988Z,18.10
2023-05-03T17:53:40.026Z,17.60
2023-05-03T17:56:14.307Z,17.60
2023-05-03T17:58:42.400Z,17.30
2023-05-03T18:01:11.037Z,17.00
2023-05-03T18:03:39.253Z,16.60
2023-05-03T18:06:13.098Z,16.10
2023-05-03T18:08:41.279Z,15.50
2023-05-03T18:11:09.419Z,15.10
2023-05-03T18:13:37.621Z,14.80
2023-05-03T18:16:08.076Z,14.60
2023-05-03T18:18:36.035Z,14.30
2023-05-03T18:21:06.164Z,14.10
2023-05-03T18:23:36.317Z,14.00
2023-05-03T18:26:05.128Z,13.80
2023-05-03T18:28:32.981Z,13.50
2023-05-03T18:31:00.841Z,13.50
2023-05-03T18:33:28.691Z,13.40
2023-05-03T18:35:56.573Z,13.30
2023-05-03T18:38:24.680Z,13.10
2023-05-03T18:40:55.384Z,13.10
2023-05-03T18:43:23.407Z,12.90
2023-05-03T18:45:51.341Z,12.80
2023-05-03T18:48:19.508Z,12.80
2023-05-03T18:50:47.556Z,12.70
2023-05-03T18:53:15.438Z,12.60
2023-05-03T18:55:43.822Z,12.40
2023-05-03T18:58:13.564Z,12.50
2023-05-03T19:00:41.518Z,12.30
2023-05-03T19:03:09.799Z,12.20
2023-05-03T19:05:37.687Z,12.20
2023-05-03T19:08:05.809Z,12.10
2023-05-03T19:10:34.026Z,11.90
2023-05-03T19:13:03.025Z,11.70
2023-05-03T19:15:32.598Z,11.50
2023-05-03T19:18:00.452Z,11.30
2023-05-03T19:20:28.818Z,11.20
2023-05-03T19:22:56.879Z,10.90
2023-05-03T19:25:25.710Z,10.90
2023-05-03T19:27:53.790Z,10.80
2023-05-03T19:30:22.100Z,10.60
2023-05-03T19:32:51.924Z,10.40
2023-05-03T19:35:19.926Z,10.40
2023-05-03T19:37:48.260Z,10.20
2023-05-03T19:40:16.339Z,10.10
2023-05-03T19:42:44.403Z,10.00
2023-05-03T19:45:13.166Z,10.10
2023-05-03T19:47:41.333Z,9.90
2023-05-03T19:50:11.118Z,9.90
2023-05-03T19:52:39.212Z,9.80
2023-05-03T19:55:08.543Z,9.70
2023-05-03T19:57:37.041Z,9.50
2023-05-03T20:00:07.101Z,9.50
2023-05-03T20:02:36.852Z,9.40
2023-05-03T20:05:05.764Z,9.30
2023-05-03T20:07:35.504Z,9.40
2023-05-03T20:10:03.721Z,9.30
2023-05-03T20:12:32.897Z,9.10
2023-05-03T20:15:00.854Z,9.10
2023-05-03T20:17:29.066Z,9.10
2023-05-03T20:19:56.904Z,9.20
2023-05-03T20:22:24.774Z,9.00
2023-05-03T20:24:54.149Z,9.10
2023-05-03T20:27:22.518Z,9.20
2023-05-03T20:29:50.374Z,9.00
2023-05-03T20:32:18.482Z,9.00
2023-05-03T20:34:46.823Z,9.00
2023-05-03T20:37:14.734Z,8.90
2023-05-03T20:39:42.625Z,8.90
2023-05-03T20:42:11.781Z,8.90
2023-05-03T20:44:40.244Z,8.60
2023-05-03T20:47:09.648Z,8.80
2023-05-03T20:49:40.116Z,8.70
2023-05-03T20:52:08.220Z,8.70
2023-05-03T20:54:36.997Z,8.60
2023-05-03T20:57:05.457Z,8.40
2023-05-03T20:59:34.980Z,8.50
2023-05-03T21:02:02.977Z,8.50
2023-05-03T21:04:31.168Z,8.30
2023-05-03T21:06:59.045Z,8.30
2023-05-03T21:09:26.943Z,8.40
2023-05-03T21:11:55.206Z,8.30
2023-05-03T21:14:23.211Z,8.50
2023-05-03T21:16:53.651Z,8.30
2023-05-03T21:19:21.849Z,8.10
2023-05-03T21:21:49.914Z,8.20
2023-05-03T21:24:17.936Z,8.20
2023-05-03T21:26:45.855Z,8.10
2023-05-03T21:29:13.722Z,8.20
2023-05-03T21:31:41.972Z,8.20
2023-05-03T21:34:11.285Z,8.30
2023-05-03T21:36:40.747Z,8.20
2023-05-03T21:39:08.642Z,8.30
2023-05-03T21:41:36.815Z,8.20
2023-05-03T21:44:04.821Z,8.30
2023-05-03T21:46:33.356Z,8.50
2023-05-03T21:49:01.289Z,8.50
2023-05-03T21:51:32.745Z,8.50
2023-05-03T21:54:00.765Z,8.40
2023-05-03T21:56:28.657Z,8.30
2023-05-03T21:58:57.069Z,8.50
2023-05-03T22:01:25.138Z,8.30
2023-05-03T22:03:53.530Z,8.40
2023-05-03T22:06:21.837Z,8.30
2023-05-03T22:08:51.433Z,8.10
2023-05-03T22:11:19.453Z,8.30
2023-05-03T22:14:03.128Z,8.00
2023-05-03T22:16:34.559Z,8.20
2023-05-03T22:19:02.534Z,8.10
2023-05-03T22:21:31.804Z,8.20
2023-05-03T22:24:01.335Z,7.90
2023-05-03T22:26:29.929Z,8.20
2023-05-03T22:28:58.102Z,8.10
2023-05-03T22:31:26.926Z,8.00
2023-05-03T22:33:55.076Z,7.90
2023-05-03T22:36:23.116Z,7.70
2023-05-03T22:38:54.984Z,7.80
2023-05-03T22:41:24.951Z,7.80
2023-05-03T22:43:52.989Z,7.80
2023-05-03T22:46:21.011Z,7.80
2023-05-03T22:48:49.476Z,7.80
2023-05-03T22:51:17.526Z,7.50
2023-05-03T22:53:45.431Z,7.60
2023-05-03T22:56:13.430Z,7.50
2023-05-03T22:58:42.950Z,7.50
2023-05-03T23:01:11.737Z,7.70
2023-05-03T23:03:40.118Z,7.20
2023-05-03T23:06:08.629Z,7.40
2023-05-03T23:08:36.548Z,7.30
2023-05-03T23:11:04.566Z,7.30
2023-05-03T23:13:32.651Z,7.50
2023-05-03T23:16:03.199Z,7.40
2023-05-03T23:18:31.834Z,7.30
2023-05-03T23:20:59.934Z,7.10
2023-05-03T23:23:27.839Z,7.20
2023-05-03T23:25:56.162Z,7.30
2023-05-03T23:28:24.379Z,7.20
2023-05-03T23:30:52.932Z,7.30
2023-05-03T23:33:23.040Z,7.10
2023-05-03T23:35:51.669Z,7.00
2023-05-03T23:38:19.627Z,7.00
2023-05-03T23:40:47.794Z,7.00
2023-05-03T23:43:16.062Z,7.00
2023-05-03T23:45:44.092Z,7.00
2023-05-03T23:48:12.166Z,6.90
2023-05-03T23:50:41.650Z,7.00
2023-05-03T23:53:09.703Z,6.80
2023-05-03T23:55:37.520Z,6.80
2023-05-03T23:58:05.585Z,6.80
